createdAt,value
2018-04-19T00:00:58.799Z,99.90
2018-04-19T00:02:09.765Z,99.90
2018-04-19T00:03:14.771Z,99.90
2018-04-19T00:04:18.972Z,99.90
2018-04-19T00:05:27.942Z,99.90
2018-04-19T00:06:36.680Z,99.90
2018-04-19T00:07:41.833Z,99.90
2018-04-19T00:08:46.029Z,99.90
2018-04-19T00:09:54.817Z,99.90
2018-04-19T00:11:06.472Z,99.90
2018-04-19T00:12:12.047Z,99.90
2018-04-19T00:13:16.240Z,99.90
2018-04-19T00:14:22.790Z,99.90
2018-04-19T00:15:34.890Z,99.90
2018-04-19T00:16:41.236Z,99.90
2018-04-19T00:17:45.529Z,99.90
2018-04-19T00:18:56.294Z,99.90
2018-04-19T00:20:06.052Z,99.90
2018-04-19T00:21:11.025Z,99.90
2018-04-19T00:22:15.228Z,99.90
2018-04-19T00:23:19.462Z,99.90
2018-04-19T00:24:30.134Z,99.90
2018-04-19T00:25:39.707Z,99.90
2018-04-19T00:26:44.021Z,99.90
2018-04-19T00:27:48.290Z,99.90
2018-04-19T00:28:58.832Z,99.90
2018-04-19T00:30:30.178Z,99.90
2018-04-19T00:31:43.262Z,99.90
2018-04-19T00:32:47.615Z,99.90
2018-04-19T00:34:00.791Z,99.90
2018-04-19T00:35:12.595Z,99.90
2018-04-19T00:36:17.271Z,99.90
2018-04-19T00:37:23.974Z,99.90
2018-04-19T00:38:36.862Z,99.90
2018-04-19T00:39:42.400Z,99.90
2018-04-19T00:40:46.622Z,99.90
2018-04-19T00:41:54.722Z,99.90
2018-04-19T00:43:04.253Z,99.90
2018-04-19T00:44:12.962Z,99.90
2018-04-19T00:45:17.353Z,99.90
2018-04-19T00:46:26.706Z,99.90
2018-04-19T00:47:34.180Z,99.90
2018-04-19T00:48:41.781Z,99.90
2018-04-19T00:49:45.981Z,99.90
2018-04-19T00:50:53.043Z,99.90
2018-04-19T00:52:03.285Z,99.90
2018-04-19T00:53:11.465Z,99.90
2018-04-19T00:54:15.725Z,99.90
2018-04-19T00:55:20.204Z,99.90
2018-04-19T00:56:31.884Z,99.90
2018-04-19T00:57:40.726Z,99.90
2018-04-19T00:58:44.938Z,99.90
2018-04-19T00:59:49.416Z,99.90
2018-04-19T01:01:01.618Z,99.90
2018-04-19T01:02:09.670Z,99.90
2018-04-19T01:03:13.903Z,99.90
2018-04-19T01:04:18.186Z,99.90
2018-04-19T01:05:32.609Z,99.90
2018-04-19T01:06:40.115Z,99.90
2018-04-19T01:07:45.174Z,99.90
2018-04-19T01:09:22.446Z,99.90
2018-04-19T01:10:32.282Z,99.90
2018-04-19T01:11:40.065Z,99.90
2018-04-19T01:12:44.261Z,99.90
2018-04-19T01:13:48.470Z,99.90
2018-04-19T01:14:58.684Z,99.90
2018-04-19T01:16:09.296Z,99.90
2018-04-19T01:17:13.511Z,99.90
2018-04-19T01:18:18.016Z,99.90
2018-04-19T01:19:28.154Z,99.90
2018-04-19T01:20:38.870Z,99.90
2018-04-19T01:21:44.050Z,99.90
2018-04-19T01:22:48.362Z,99.90
2018-04-19T01:24:01.336Z,99.90
2018-04-19T01:25:11.551Z,99.90
2018-04-19T01:26:15.848Z,99.90
2018-04-19T01:27:20.804Z,99.90
2018-04-19T01:28:35.075Z,99.90
2018-04-19T01:29:40.761Z,99.90
2018-04-19T01:30:45.732Z,99.90
2018-04-19T01:31:54.848Z,99.90
2018-04-19T01:33:05.512Z,99.90
2018-04-19T01:34:11.067Z,99.90
2018-04-19T01:35:15.368Z,99.90
2018-04-19T01:36:29.906Z,99.90
2018-04-19T01:37:39.328Z,99.90
2018-04-19T01:38:43.961Z,99.90
2018-04-19T01:39:48.166Z,99.90
2018-04-19T01:40:59.143Z,99.90
2018-04-19T01:42:08.285Z,99.90
2018-04-19T01:43:12.967Z,99.90
2018-04-19T01:44:17.999Z,99.90
2018-04-19T01:45:28.120Z,99.90
2018-04-19T01:46:35.799Z,99.90
2018-04-19T01:47:41.072Z,99.90
2018-04-19T01:48:46.059Z,99.90
2018-04-19T01:49:55.591Z,99.90
2018-04-19T01:51:05.956Z,99.90
2018-04-19T01:52:11.886Z,99.90
2018-04-19T01:53:16.269Z,99.90
2018-04-19T01:54:28.105Z,99.90
2018-04-19T01:55:39.263Z,99.90
2018-04-19T01:56:43.478Z,99.90
2018-04-19T01:57:47.676Z,99.90
2018-04-19T01:58:57.791Z,99.90
2018-04-19T02:00:06.455Z,99.90
2018-04-19T02:01:11.416Z,99.90
2018-04-19T02:02:15.635Z,99.90
2018-04-19T02:03:20.565Z,99.90
2018-04-19T02:04:30.797Z,99.90
2018-04-19T02:05:38.956Z,99.90
2018-04-19T02:06:43.163Z,99.90
2018-04-19T02:07:47.371Z,99.90
2018-04-19T02:08:56.883Z,99.90
2018-04-19T02:10:06.744Z,99.90
2018-04-19T02:11:12.342Z,99.90
2018-04-19T02:12:16.560Z,99.90
2018-04-19T02:13:23.998Z,99.90
2018-04-19T02:14:33.119Z,99.90
2018-04-19T02:15:40.612Z,99.90
2018-04-19T02:16:44.814Z,99.90
2018-04-19T02:17:49.046Z,99.90
2018-04-19T02:19:00.182Z,99.90
2018-04-19T02:20:07.659Z,99.90
2018-04-19T02:21:12.429Z,99.90
2018-04-19T02:22:16.643Z,99.90
2018-04-19T02:23:26.396Z,99.90
2018-04-19T02:24:36.253Z,99.90
2018-04-19T02:25:42.102Z,99.90
2018-04-19T02:26:46.317Z,99.90
2018-04-19T02:27:55.117Z,99.90
2018-04-19T02:29:06.519Z,99.90
2018-04-19T02:30:12.161Z,99.90
2018-04-19T02:31:16.365Z,99.90
2018-04-19T02:32:24.839Z,99.90
2018-04-19T02:33:32.636Z,99.90
2018-04-19T02:34:40.559Z,99.90
2018-04-19T02:35:45.272Z,99.90
2018-04-19T02:36:49.560Z,99.90
2018-04-19T02:38:03.874Z,99.90
2018-04-19T02:39:11.623Z,99.90
2018-04-19T02:40:15.876Z,99.90
2018-04-19T02:41:23.673Z,99.90
2018-04-19T02:42:33.376Z,99.90
2018-04-19T02:43:40.997Z,99.90
2018-04-19T02:44:45.329Z,99.90
2018-04-19T02:45:53.195Z,99.90
2018-04-19T02:47:01.191Z,99.90
2018-04-19T02:48:11.523Z,99.90
2018-04-19T02:49:15.771Z,99.90
2018-04-19T02:50:22.161Z,99.90
2018-04-19T02:51:33.258Z,99.90
2018-04-19T02:52:41.463Z,99.90
2018-04-19T02:53:45.674Z,99.90
2018-04-19T02:54:51.014Z,99.90
2018-04-19T02:56:04.937Z,99.90
2018-04-19T02:57:13.912Z,99.90
2018-04-19T02:58:18.129Z,99.90
2018-04-19T02:59:31.238Z,99.90
2018-04-19T03:00:39.315Z,99.90
2018-04-19T03:01:43.543Z,99.90
2018-04-19T03:02:47.768Z,99.90
2018-04-19T03:03:56.482Z,99.90
2018-04-19T03:05:04.587Z,99.90
2018-04-19T03:06:11.552Z,99.90
2018-04-19T03:07:15.744Z,99.90
2018-04-19T03:08:20.267Z,99.90
2018-04-19T03:09:31.919Z,99.90
2018-04-19T03:10:41.819Z,99.90
2018-04-19T03:11:46.047Z,99.90
2018-04-19T03:12:53.878Z,99.90
2018-04-19T03:14:05.122Z,99.90
2018-04-19T03:15:10.320Z,99.90
2018-04-19T03:16:14.540Z,99.90
2018-04-19T03:17:18.732Z,99.90
2018-04-19T03:18:28.196Z,99.90
2018-04-19T03:19:37.686Z,99.90
2018-04-19T03:20:42.550Z,99.90
2018-04-19T03:21:46.791Z,99.90
2018-04-19T03:22:55.683Z,99.90
2018-04-19T03:24:06.143Z,99.90
2018-04-19T03:25:11.509Z,99.90
2018-04-19T03:26:16.675Z,99.90
2018-04-19T03:27:24.573Z,99.90
2018-04-19T03:28:36.274Z,99.90
2018-04-19T03:29:41.611Z,99.90
2018-04-19T03:30:45.831Z,99.90
2018-04-19T03:31:52.777Z,99.90
2018-04-19T03:33:06.711Z,99.90
2018-04-19T03:34:11.713Z,99.90
2018-04-19T03:35:15.921Z,99.90
2018-04-19T03:36:24.035Z,99.90
2018-04-19T03:37:36.735Z,99.90
2018-04-19T03:38:42.136Z,99.90
2018-04-19T03:40:05.197Z,99.90
2018-04-19T03:41:11.260Z,99.90
2018-04-19T03:42:15.556Z,99.90
2018-04-19T03:43:22.077Z,99.90
2018-04-19T03:44:33.591Z,99.90
2018-04-19T03:45:40.285Z,99.90
2018-04-19T03:46:44.587Z,99.90
2018-04-19T03:47:48.795Z,99.90
2018-04-19T03:49:00.674Z,99.90
2018-04-19T03:50:09.382Z,99.90
2018-04-19T03:51:14.379Z,99.90
2018-04-19T03:52:18.581Z,99.90
2018-04-19T03:53:38.279Z,99.90
2018-04-19T03:54:45.722Z,99.90
2018-04-19T03:55:49.930Z,99.90
2018-04-19T03:57:02.249Z,99.90
2018-04-19T03:58:10.634Z,99.90
2018-04-19T03:59:14.864Z,99.90
2018-04-19T04:00:19.083Z,99.90
2018-04-19T04:01:31.060Z,99.90
2018-04-19T04:02:41.020Z,99.90
2018-04-19T04:03:45.242Z,99.90
2018-04-19T04:04:49.511Z,99.90
2018-04-19T04:05:59.942Z,99.90
2018-04-19T04:07:09.044Z,99.90
2018-04-19T04:08:13.636Z,99.90
2018-04-19T04:09:17.844Z,99.90
2018-04-19T04:10:29.053Z,99.90
2018-04-19T04:11:37.070Z,99.90
2018-04-19T04:12:41.750Z,99.90
2018-04-19T04:13:45.991Z,99.90
2018-04-19T04:14:52.220Z,99.90
2018-04-19T04:16:01.770Z,99.90
2018-04-19T04:17:28.811Z,99.90
2018-04-19T04:18:54.724Z,99.90
2018-04-19T04:22:07.256Z,99.90
2018-04-19T04:23:30.583Z,99.90
2018-04-19T04:24:37.119Z,99.90
2018-04-19T04:25:41.350Z,99.90
2018-04-19T04:26:46.405Z,99.90
2018-04-19T04:27:52.567Z,99.90
2018-04-19T04:29:00.281Z,99.90
2018-04-19T04:30:05.504Z,99.90
2018-04-19T04:31:10.160Z,99.90
2018-04-19T04:32:14.510Z,99.90
2018-04-19T04:33:18.817Z,99.90
2018-04-19T04:34:36.487Z,99.90
2018-04-19T04:35:41.498Z,99.90
2018-04-19T04:36:45.701Z,99.90
2018-04-19T04:37:50.959Z,99.90
2018-04-19T04:39:02.771Z,99.90
2018-04-19T04:40:10.380Z,99.90
2018-04-19T04:41:15.380Z,99.90
2018-04-19T04:42:19.675Z,99.90
2018-04-19T04:43:31.835Z,99.90
2018-04-19T04:44:41.046Z,99.90
2018-04-19T04:45:45.363Z,99.90
2018-04-19T04:46:50.342Z,99.90
2018-04-19T04:48:04.693Z,99.90
2018-04-19T04:49:10.523Z,99.90
2018-04-19T04:50:14.747Z,99.90
2018-04-19T04:51:18.963Z,99.90
2018-04-19T04:52:34.560Z,99.90
2018-04-19T04:53:41.246Z,99.90
2018-04-19T04:54:45.459Z,99.90
2018-04-19T04:55:49.746Z,99.90
2018-04-19T04:57:02.656Z,99.90
2018-04-19T04:58:12.248Z,99.90
2018-04-19T04:59:16.579Z,99.90
2018-04-19T05:00:25.872Z,99.90
2018-04-19T05:01:34.836Z,99.90
2018-04-19T05:02:40.439Z,99.90
2018-04-19T05:03:44.654Z,99.90
2018-04-19T05:04:49.082Z,99.90
2018-04-19T05:05:58.856Z,99.90
2018-04-19T05:07:05.473Z,99.90
2018-04-19T05:08:09.776Z,99.90
2018-04-19T05:09:14.809Z,99.90
2018-04-19T05:10:19.097Z,99.90
2018-04-19T05:11:27.118Z,99.90
2018-04-19T05:12:34.876Z,99.90
2018-04-19T05:13:39.721Z,99.90
2018-04-19T05:14:43.921Z,99.90
2018-04-19T05:15:48.240Z,99.90
2018-04-19T05:16:57.975Z,99.90
2018-04-19T05:18:06.631Z,99.90
2018-04-19T05:19:11.777Z,99.90
2018-04-19T05:20:16.042Z,99.90
2018-04-19T05:21:20.974Z,99.90
2018-04-19T05:22:29.539Z,99.90
2018-04-19T05:23:35.384Z,99.90
2018-04-19T05:24:39.586Z,99.90
2018-04-19T05:25:43.895Z,99.90
2018-04-19T05:26:48.144Z,99.90
2018-04-19T05:27:55.960Z,99.90
2018-04-19T05:29:01.807Z,99.90
2018-04-19T05:30:07.402Z,99.90
2018-04-19T05:31:12.455Z,99.90
2018-04-19T05:32:17.451Z,99.90
2018-04-19T05:33:29.150Z,99.90
2018-04-19T05:34:37.413Z,99.90
2018-04-19T05:35:41.639Z,99.90
2018-04-19T05:36:46.036Z,99.90
2018-04-19T05:37:57.207Z,99.90
2018-04-19T05:39:07.503Z,99.90
2018-04-19T05:40:12.912Z,99.90
2018-04-19T05:41:17.134Z,99.90
2018-04-19T05:42:26.167Z,99.90
2018-04-19T05:43:37.163Z,99.90
2018-04-19T05:44:41.848Z,99.90
2018-04-19T05:45:46.059Z,99.90
2018-04-19T05:46:52.238Z,99.90
2018-04-19T05:48:02.045Z,99.90
2018-04-19T05:49:08.301Z,99.90
2018-04-19T05:50:12.505Z,99.90
2018-04-19T05:51:16.696Z,99.90
2018-04-19T05:52:25.613Z,99.90
2018-04-19T05:53:33.126Z,99.90
2018-04-19T05:54:38.385Z,99.90
2018-04-19T05:55:42.580Z,99.90
2018-04-19T05:56:46.789Z,99.90
2018-04-19T05:58:02.367Z,99.90
2018-04-19T05:59:10.153Z,99.90
2018-04-19T06:00:15.736Z,99.90
2018-04-19T06:01:19.955Z,99.90
2018-04-19T06:02:42.783Z,99.90
2018-04-19T06:04:01.454Z,99.90
2018-04-19T06:05:09.971Z,99.90
2018-04-19T06:06:14.501Z,99.90
2018-04-19T06:07:18.880Z,99.90
2018-04-19T06:09:13.825Z,99.90
2018-04-19T06:10:31.909Z,99.90
2018-04-19T06:11:58.653Z,99.90
2018-04-19T06:14:40.171Z,99.90
2018-04-19T06:15:58.365Z,99.90
2018-04-19T06:17:15.379Z,99.90
2018-04-19T06:22:08.960Z,99.90
2018-04-19T06:23:14.999Z,99.90
2018-04-19T06:24:19.207Z,99.90
2018-04-19T06:25:30.273Z,99.90
2018-04-19T06:26:40.128Z,99.90
2018-04-19T06:28:15.886Z,99.90
2018-04-19T06:29:41.295Z,99.90
2018-04-19T06:30:46.695Z,99.90
2018-04-19T06:34:06.516Z,99.90
2018-04-19T06:35:18.431Z,99.90
2018-04-19T06:36:31.214Z,99.90
2018-04-19T06:37:40.045Z,99.90
2018-04-19T06:38:45.070Z,99.90
2018-04-19T06:39:49.619Z,99.90
2018-04-19T06:41:07.032Z,99.90
2018-04-19T06:42:16.724Z,99.90
2018-04-19T06:43:37.238Z,99.90
2018-04-19T06:44:58.039Z,99.90
2018-04-19T06:46:06.563Z,99.90
2018-04-19T06:47:12.078Z,99.90
2018-04-19T06:48:16.270Z,99.90
2018-04-19T06:49:28.792Z,99.90
2018-04-19T06:50:39.340Z,99.90
2018-04-19T06:51:52.842Z,99.90
2018-04-19T06:52:58.376Z,99.90
2018-04-19T06:54:10.063Z,99.90
2018-04-19T06:55:21.923Z,99.90
2018-04-19T06:56:26.149Z,99.90
2018-04-19T06:57:30.655Z,99.90
2018-04-19T06:58:58.153Z,99.90
2018-04-19T07:00:14.534Z,99.90
2018-04-19T07:01:21.966Z,99.90
2018-04-19T07:02:26.956Z,99.90
2018-04-19T07:03:36.787Z,99.90
2018-04-19T07:04:49.488Z,99.90
2018-04-19T07:05:53.734Z,99.90
2018-04-19T07:06:57.932Z,99.90
2018-04-19T07:08:19.194Z,99.90
2018-04-19T07:09:25.958Z,99.90
2018-04-19T07:10:31.763Z,99.90
2018-04-19T07:11:48.303Z,99.90
2018-04-19T07:12:53.684Z,99.90
2018-04-19T07:13:58.198Z,99.90
2018-04-19T07:15:07.563Z,99.90
2018-04-19T07:16:17.597Z,99.90
2018-04-19T07:17:22.238Z,99.90
2018-04-19T07:18:26.436Z,99.90
2018-04-19T07:19:31.050Z,99.90
2018-04-19T07:20:40.468Z,99.90
2018-04-19T07:21:48.031Z,99.90
2018-04-19T07:22:52.249Z,99.90
2018-04-19T07:23:57.266Z,99.90
2018-04-19T07:25:07.027Z,99.90
2018-04-19T07:26:16.300Z,99.90
2018-04-19T07:27:20.514Z,99.90
2018-04-19T07:28:24.726Z,99.90
2018-04-19T07:29:28.920Z,99.90
2018-04-19T07:30:41.706Z,99.90
2018-04-19T07:31:48.423Z,99.90
2018-04-19T07:32:53.424Z,99.90
2018-04-19T07:33:57.823Z,99.90
2018-04-19T07:35:06.781Z,99.90
2018-04-19T07:36:15.673Z,99.90
2018-04-19T07:37:19.970Z,99.90
2018-04-19T07:38:24.291Z,99.90
2018-04-19T07:39:28.496Z,99.90
2018-04-19T07:40:36.747Z,99.90
2018-04-19T07:41:43.309Z,99.90
2018-04-19T07:42:48.264Z,99.90
2018-04-19T07:43:52.476Z,99.90
2018-04-19T07:44:56.824Z,99.90
2018-04-19T07:46:04.133Z,99.90
2018-04-19T07:47:10.695Z,99.90
2018-04-19T07:48:16.645Z,99.90
2018-04-19T07:49:20.860Z,99.90
2018-04-19T07:50:25.254Z,99.90
2018-04-19T07:51:29.531Z,99.90
2018-04-19T07:52:37.921Z,99.90
2018-04-19T07:53:42.964Z,99.90
2018-04-19T07:54:47.824Z,99.90
2018-04-19T07:55:52.048Z,99.90
2018-04-19T07:56:56.339Z,99.90
2018-04-19T07:58:00.673Z,99.90
2018-04-19T07:59:08.042Z,99.90
2018-04-19T08:00:12.883Z,99.90
2018-04-19T08:01:18.249Z,99.90
2018-04-19T08:02:22.452Z,99.90
2018-04-19T08:03:26.669Z,99.90
2018-04-19T08:04:32.211Z,99.90
2018-04-19T08:05:39.556Z,99.90
2018-04-19T08:06:44.385Z,99.90
2018-04-19T08:07:48.652Z,99.90
2018-04-19T08:08:52.844Z,99.90
2018-04-19T08:09:57.330Z,99.90
2018-04-19T08:11:03.691Z,99.90
2018-04-19T08:12:10.470Z,99.90
2018-04-19T08:13:16.155Z,99.90
2018-04-19T08:14:20.358Z,99.90
2018-04-19T08:15:24.728Z,99.90
2018-04-19T08:16:29.030Z,99.90
2018-04-19T08:17:35.518Z,99.90
2018-04-19T08:18:40.199Z,99.60
2018-04-19T08:19:45.511Z,99.10
2018-04-19T08:20:49.937Z,99.10
2018-04-19T08:21:54.282Z,99.20
2018-04-19T08:22:58.566Z,99.50
2018-04-19T08:24:03.991Z,99.40
2018-04-19T08:25:10.762Z,99.10
2018-04-19T08:26:16.243Z,99.10
2018-04-19T08:27:20.490Z,99.00
2018-04-19T08:28:24.897Z,98.50
2018-04-19T08:29:29.106Z,98.10
2018-04-19T08:30:34.920Z,97.70
2018-04-19T08:31:39.818Z,97.50
2018-04-19T08:32:44.503Z,97.10
2018-04-19T08:33:48.818Z,96.70
2018-04-19T08:34:53.016Z,96.80
2018-04-19T08:35:57.236Z,96.90
2018-04-19T08:37:02.247Z,97.80
2018-04-19T08:38:06.986Z,97.20
2018-04-19T08:39:11.728Z,97.20
2018-04-19T08:40:16.065Z,96.50
2018-04-19T08:41:20.329Z,96.70
2018-04-19T08:42:24.565Z,96.30
2018-04-19T08:43:28.768Z,95.40
2018-04-19T08:44:34.545Z,95.20
2018-04-19T08:45:42.712Z,95.40
2018-04-19T08:46:47.451Z,95.20
2018-04-19T08:47:51.664Z,95.20
2018-04-19T08:48:55.906Z,94.40
2018-04-19T08:50:01.603Z,94.60
2018-04-19T08:51:08.750Z,94.50
2018-04-19T08:52:14.116Z,94.40
2018-04-19T08:53:18.597Z,94.40
2018-04-19T08:54:23.598Z,94.30
2018-04-19T08:55:27.809Z,94.30
2018-04-19T08:56:32.875Z,94.60
2018-04-19T08:57:37.765Z,92.90
2018-04-19T08:58:42.618Z,92.50
2018-04-19T08:59:48.821Z,93.20
2018-04-19T09:00:53.042Z,93.20
2018-04-19T09:01:57.263Z,93.10
2018-04-19T09:03:02.136Z,92.70
2018-04-19T09:04:10.964Z,92.90
2018-04-19T09:05:15.991Z,92.50
2018-04-19T09:06:20.204Z,92.00
2018-04-19T09:07:24.403Z,91.40
2018-04-19T09:08:29.381Z,90.10
2018-04-19T09:09:34.721Z,90.10
2018-04-19T09:10:39.694Z,89.80
2018-04-19T09:11:44.140Z,90.00
2018-04-19T09:12:48.484Z,88.60
2018-04-19T09:13:52.852Z,86.70
2018-04-19T09:14:57.092Z,85.90
2018-04-19T09:16:04.095Z,86.90
2018-04-19T09:17:08.905Z,85.50
2018-04-19T09:18:13.366Z,86.10
2018-04-19T09:19:17.639Z,85.40
2018-04-19T09:20:21.832Z,85.60
2018-04-19T09:21:26.066Z,82.60
2018-04-19T09:22:30.418Z,81.20
2018-04-19T09:23:37.722Z,79.80
2018-04-19T09:24:43.765Z,79.90
2018-04-19T09:25:48.397Z,79.80
2018-04-19T09:26:52.666Z,80.00
2018-04-19T09:27:57.020Z,79.80
2018-04-19T09:29:02.024Z,78.10
2018-04-19T09:30:09.772Z,78.20
2018-04-19T09:31:16.698Z,77.60
2018-04-19T09:32:21.262Z,75.00
2018-04-19T09:33:25.460Z,75.70
2018-04-19T09:34:29.652Z,76.30
2018-04-19T09:35:43.623Z,74.50
2018-04-19T09:36:49.435Z,73.40
2018-04-19T09:37:53.666Z,73.40
2018-04-19T09:38:57.879Z,74.10
2018-04-19T09:40:02.644Z,74.50
2018-04-19T09:41:07.462Z,71.90
2018-04-19T09:42:12.859Z,70.10
2018-04-19T09:43:17.281Z,70.10
2018-04-19T09:44:21.490Z,69.70
2018-04-19T09:45:25.694Z,69.90
2018-04-19T09:46:29.903Z,71.20
2018-04-19T09:47:38.371Z,70.90
2018-04-19T09:48:43.809Z,69.20
2018-04-19T09:49:49.162Z,68.80
2018-04-19T09:50:54.138Z,68.80
2018-04-19T09:51:58.451Z,68.80
2018-04-19T09:53:06.088Z,68.40
2018-04-19T09:54:10.871Z,68.10
2018-04-19T09:55:18.091Z,66.80
2018-04-19T09:56:22.285Z,66.70
2018-04-19T09:57:26.484Z,66.70
2018-04-19T09:58:30.709Z,65.90
2018-04-19T09:59:38.854Z,64.40
2018-04-19T10:00:46.111Z,63.90
2018-04-19T10:01:52.058Z,64.40
2018-04-19T10:02:59.288Z,64.40
2018-04-19T10:04:07.981Z,65.00
2018-04-19T10:05:19.610Z,64.80
2018-04-19T10:06:23.997Z,63.90
2018-04-19T10:07:28.397Z,65.00
2018-04-19T10:08:35.844Z,64.00
2018-04-19T10:09:41.490Z,62.00
2018-04-19T10:10:49.177Z,62.40
2018-04-19T10:11:53.665Z,61.90
2018-04-19T10:12:57.910Z,63.00
2018-04-19T10:14:05.469Z,63.50
2018-04-19T10:15:13.258Z,63.30
2018-04-19T10:16:20.866Z,60.70
2018-04-19T10:17:25.068Z,60.30
2018-04-19T10:18:29.307Z,61.80
2018-04-19T10:19:38.182Z,59.70
2018-04-19T10:20:47.118Z,59.90
2018-04-19T10:21:52.818Z,61.00
2018-04-19T10:22:57.968Z,59.90
2018-04-19T10:24:05.233Z,59.90
2018-04-19T10:25:12.953Z,59.30
2018-04-19T10:26:19.472Z,59.80
2018-04-19T10:27:23.945Z,58.90
2018-04-19T10:28:28.174Z,58.90
2018-04-19T10:29:35.613Z,58.20
2018-04-19T10:30:46.170Z,57.80
2018-04-19T10:31:51.586Z,57.60
2018-04-19T10:32:55.786Z,58.50
2018-04-19T10:34:00.147Z,57.80
2018-04-19T10:35:10.421Z,59.20
2018-04-19T10:36:19.603Z,58.70
2018-04-19T10:37:23.862Z,58.70
2018-04-19T10:38:28.062Z,57.60
2018-04-19T10:39:35.331Z,58.10
2018-04-19T10:40:43.942Z,58.40
2018-04-19T10:41:48.778Z,57.80
2018-04-19T10:42:52.985Z,58.90
2018-04-19T10:43:57.622Z,58.20
2018-04-19T10:45:03.420Z,57.70
2018-04-19T10:46:10.849Z,55.00
2018-04-19T10:47:17.450Z,54.90
2018-04-19T10:48:21.755Z,54.40
2018-04-19T10:49:26.131Z,55.70
2018-04-19T10:50:31.413Z,53.90
2018-04-19T10:51:39.029Z,53.90
2018-04-19T10:52:44.735Z,54.00
2018-04-19T10:53:50.001Z,55.90
2018-04-19T10:54:54.212Z,54.10
2018-04-19T10:55:58.404Z,54.70
2018-04-19T10:57:36.280Z,53.70
2018-04-19T10:58:50.418Z,53.20
2018-04-19T10:59:55.457Z,53.10
2018-04-19T11:01:00.518Z,52.70
2018-04-19T11:02:15.623Z,52.70
2018-04-19T11:03:22.627Z,53.40
2018-04-19T11:04:26.889Z,52.70
2018-04-19T11:05:31.161Z,53.40
2018-04-19T11:06:38.524Z,53.50
2018-04-19T11:07:46.371Z,52.40
2018-04-19T11:08:52.006Z,52.60
2018-04-19T11:09:56.192Z,52.60
2018-04-19T11:11:02.775Z,52.30
2018-04-19T11:12:11.722Z,52.30
2018-04-19T11:13:19.306Z,51.20
2018-04-19T11:14:24.015Z,50.40
2018-04-19T11:15:28.223Z,49.40
2018-04-19T11:16:34.858Z,50.20
2018-04-19T11:17:43.465Z,49.00
2018-04-19T11:18:51.194Z,48.00
2018-04-19T11:19:55.506Z,47.90
2018-04-19T11:20:59.714Z,46.40
2018-04-19T11:22:08.849Z,45.40
2018-04-19T11:23:24.869Z,44.20
2018-04-19T11:24:30.719Z,44.70
2018-04-19T11:25:42.293Z,44.70
2018-04-19T11:26:51.250Z,44.10
2018-04-19T11:27:56.216Z,44.00
2018-04-19T11:29:00.640Z,44.10
2018-04-19T11:30:11.583Z,42.40
2018-04-19T11:31:19.857Z,42.30
2018-04-19T11:32:24.229Z,41.00
2018-04-19T11:33:28.431Z,43.10
2018-04-19T11:34:39.590Z,41.50
2018-04-19T11:35:49.499Z,41.50
2018-04-19T11:36:53.701Z,41.90
2018-04-19T11:37:57.962Z,42.80
2018-04-19T11:39:09.755Z,43.50
2018-04-19T11:40:19.649Z,43.40
2018-04-19T11:41:25.140Z,43.90
2018-04-19T11:42:29.359Z,43.90
2018-04-19T11:43:43.424Z,43.80
2018-04-19T11:44:52.444Z,44.40
2018-04-19T11:45:56.660Z,44.40
2018-04-19T11:47:02.294Z,43.30
2018-04-19T11:48:16.215Z,43.20
2018-04-19T11:49:21.930Z,44.60
2018-04-19T11:50:26.901Z,44.70
2018-04-19T11:51:34.892Z,44.10
2018-04-19T11:52:43.878Z,44.20
2018-04-19T11:53:52.682Z,43.30
2018-04-19T11:54:57.157Z,43.40
2018-04-19T11:56:07.567Z,43.40
2018-04-19T11:57:21.049Z,42.70
2018-04-19T11:58:25.315Z,41.20
2018-04-19T11:59:29.597Z,41.40
2018-04-19T12:00:42.893Z,42.50
2018-04-19T12:01:52.236Z,42.40
2018-04-19T12:02:56.429Z,42.50
2018-04-19T12:04:02.109Z,43.10
2018-04-19T12:05:14.790Z,42.60
2018-04-19T12:06:20.326Z,43.20
2018-04-19T12:07:24.617Z,43.10
2018-04-19T12:08:29.762Z,43.40
2018-04-19T12:09:35.071Z,43.80
2018-04-19T12:10:39.623Z,43.20
2018-04-19T12:11:49.470Z,42.30
2018-04-19T12:12:54.154Z,41.20
2018-04-19T12:14:14.866Z,41.60
2018-04-19T12:15:20.860Z,39.70
2018-04-19T12:16:25.838Z,40.40
2018-04-19T12:17:30.204Z,40.50
2018-04-19T12:18:36.382Z,39.80
2018-04-19T12:19:42.912Z,40.00
2018-04-19T12:20:49.822Z,38.60
2018-04-19T12:21:54.043Z,38.10
2018-04-19T12:22:58.265Z,38.50
2018-04-19T12:24:07.869Z,39.30
2018-04-19T12:25:16.379Z,38.50
2018-04-19T12:26:21.728Z,37.60
2018-04-19T12:28:50.116Z,37.80
2018-04-19T12:29:55.101Z,38.80
2018-04-19T12:30:59.316Z,38.10
2018-04-19T12:32:09.412Z,37.90
2018-04-19T12:33:17.508Z,37.70
2018-04-19T12:34:22.019Z,37.60
2018-04-19T12:35:27.284Z,37.80
2018-04-19T12:36:35.653Z,37.80
2018-04-19T12:37:40.989Z,39.40
2018-04-19T12:38:49.664Z,37.40
2018-04-19T12:39:53.865Z,37.20
2018-04-19T12:40:58.089Z,37.50
2018-04-19T12:42:04.842Z,38.00
2018-04-19T12:43:14.302Z,39.00
2018-04-19T12:44:19.704Z,39.00
2018-04-19T12:45:23.946Z,38.90
2018-04-19T12:46:28.153Z,36.20
2018-04-19T12:47:35.418Z,36.00
2018-04-19T12:48:43.556Z,35.20
2018-04-19T12:49:48.912Z,35.20
2018-04-19T12:50:53.135Z,35.60
2018-04-19T12:51:58.274Z,33.70
2018-04-19T12:53:08.573Z,35.30
2018-04-19T12:54:15.949Z,35.30
2018-04-19T12:55:21.952Z,34.40
2018-04-19T12:56:26.192Z,34.30
2018-04-19T12:57:30.719Z,34.40
2018-04-19T12:58:41.464Z,35.70
2018-04-19T12:59:48.368Z,35.40
2018-04-19T13:00:52.792Z,36.00
2018-04-19T13:01:57.001Z,35.40
2018-04-19T13:03:04.187Z,35.30
2018-04-19T13:04:11.960Z,35.80
2018-04-19T13:05:20.168Z,35.70
2018-04-19T13:06:24.411Z,34.50
2018-04-19T13:07:28.609Z,34.40
2018-04-19T13:08:39.036Z,35.00
2018-04-19T13:09:46.401Z,35.10
2018-04-19T13:10:53.221Z,35.30
2018-04-19T13:11:58.210Z,34.90
2018-04-19T13:13:06.963Z,34.90
2018-04-19T13:14:15.088Z,34.60
2018-04-19T13:15:20.474Z,34.40
2018-04-19T13:16:24.710Z,34.40
2018-04-19T13:17:29.095Z,35.00
2018-04-19T13:18:36.861Z,33.50
2018-04-19T13:19:43.563Z,33.50
2018-04-19T13:20:51.558Z,33.30
2018-04-19T13:21:56.601Z,33.30
2018-04-19T13:23:01.013Z,33.20
2018-04-19T13:24:11.399Z,33.20
2018-04-19T13:25:18.620Z,33.20
2018-04-19T13:26:24.922Z,33.00
2018-04-19T13:27:29.117Z,32.90
2018-04-19T13:28:43.417Z,32.70
2018-04-19T13:29:50.686Z,32.60
2018-04-19T13:30:54.938Z,31.50
2018-04-19T13:31:59.924Z,32.40
2018-04-19T13:33:11.512Z,31.80
2018-04-19T13:34:21.169Z,32.00
2018-04-19T13:35:25.366Z,31.90
2018-04-19T13:36:29.746Z,30.50
2018-04-19T13:37:41.887Z,30.40
2018-04-19T13:38:48.758Z,30.40
2018-04-19T13:39:53.184Z,31.20
2018-04-19T13:40:57.374Z,31.80
2018-04-19T13:42:03.674Z,31.50
2018-04-19T13:43:12.233Z,31.80
2018-04-19T13:44:18.903Z,31.50
2018-04-19T13:45:23.677Z,31.50
2018-04-19T13:46:28.666Z,30.90
2018-04-19T13:47:40.419Z,30.90
2018-04-19T13:48:49.824Z,30.90
2018-04-19T13:49:54.982Z,30.60
2018-04-19T13:50:59.408Z,30.50
2018-04-19T13:52:08.502Z,30.60
2018-04-19T13:53:16.064Z,30.50
2018-04-19T13:54:22.695Z,30.60
2018-04-19T13:55:26.917Z,30.60
2018-04-19T13:56:34.231Z,31.10
2018-04-19T13:57:45.555Z,31.20
2018-04-19T13:58:51.622Z,31.00
2018-04-19T13:59:55.835Z,30.80
2018-04-19T14:01:00.128Z,32.00
2018-04-19T14:02:10.042Z,30.70
2018-04-19T14:03:19.120Z,30.60
2018-04-19T14:04:24.777Z,30.30
2018-04-19T14:05:28.977Z,30.20
2018-04-19T14:06:37.325Z,29.80
2018-04-19T14:07:43.313Z,29.40
2018-04-19T14:08:50.102Z,29.50
2018-04-19T14:09:54.391Z,30.40
2018-04-19T14:10:59.347Z,29.40
2018-04-19T14:12:07.252Z,29.40
2018-04-19T14:13:14.946Z,29.80
2018-04-19T14:14:20.679Z,30.00
2018-04-19T14:15:25.094Z,29.90
2018-04-19T14:16:29.406Z,30.90
2018-04-19T14:17:41.172Z,30.90
2018-04-19T14:18:49.349Z,30.60
2018-04-19T14:19:53.732Z,30.10
2018-04-19T14:20:57.920Z,29.70
2018-04-19T14:22:04.080Z,30.10
2018-04-19T14:23:15.339Z,29.50
2018-04-19T14:24:21.214Z,29.50
2018-04-19T14:25:25.623Z,29.40
2018-04-19T14:26:29.937Z,29.60
2018-04-19T14:27:41.839Z,30.00
2018-04-19T14:28:51.365Z,30.20
2018-04-19T14:29:56.390Z,29.70
2018-04-19T14:31:01.025Z,29.80
2018-04-19T14:32:13.610Z,29.80
2018-04-19T14:33:20.454Z,29.80
2018-04-19T14:34:30.336Z,30.30
2018-04-19T14:35:43.085Z,30.20
2018-04-19T14:36:50.690Z,30.40
2018-04-19T14:37:54.899Z,30.00